BAW23T KATL-EGLL
Flight info
| Callsign | BAW23T |
|---|---|
| Flight time | N/A |
| Altitude | 35000 |
| Route | HRTWL Q64 SAWED Q108 ZJAAY Q167 RIFLE DCT YAHOO DCT KANNI N171E PORTI/M083F370 NATX XETBO/N0474F390 DCT EVRIN DCT JETZI DCT AMFUL DCT ORZEB/N0403F230 P2 SIRIC |
| Aircraft | B77W/H-SDE1E3FGHIJ3J4J5J6M1M2P2RWXYZ/LB1D1 |
Departure
| Time | 2026-05-04 01:53 |
|---|---|
| Airport | Hartsfield Jackson Atlanta International Airport (KATL) |
Arrival
| Time | N/A |
|---|---|
| Airport | London Heathrow Airport (EGLL) |
| Time | Latitude | Longitude | Altitude | Speed | Heading |
|---|---|---|---|---|---|
| 2026-05-04 01:35 | 33.63934 | -84.41867 | 973 ft | 0 kts | 303° |
| 2026-05-04 01:44 | 33.63931 | -84.41863 | 973 ft | 2 kts | 303° |
| 2026-05-04 01:44 | 33.63923 | -84.41848 | 973 ft | 2 kts | 303° |
| 2026-05-04 01:44 | 33.63916 | -84.41834 | 972 ft | 0 kts | 303° |
| 2026-05-04 01:45 | 33.63909 | -84.41823 | 972 ft | 2 kts | 299° |
| 2026-05-04 01:45 | 33.63903 | -84.41807 | 972 ft | 2 kts | 287° |
| 2026-05-04 01:45 | 33.63899 | -84.41772 | 971 ft | 2 kts | 269° |
| 2026-05-04 01:46 | 33.63899 | -84.41761 | 971 ft | 0 kts | 264° |
| 2026-05-04 01:48 | 33.63899 | -84.41763 | 971 ft | 1 kts | 264° |
| 2026-05-04 01:48 | 33.63891 | -84.41801 | 972 ft | 5 kts | 248° |
| 2026-05-04 01:49 | 33.63843 | -84.41816 | 972 ft | 12 kts | 188° |
| 2026-05-04 01:49 | 33.63753 | -84.41825 | 974 ft | 11 kts | 180° |
| 2026-05-04 01:49 | 33.63676 | -84.41808 | 975 ft | 12 kts | 156° |
| 2026-05-04 01:49 | 33.63591 | -84.41755 | 974 ft | 14 kts | 120° |
| 2026-05-04 01:50 | 33.63580 | -84.41634 | 972 ft | 14 kts | 88° |
| 2026-05-04 01:50 | 33.63582 | -84.41516 | 971 ft | 14 kts | 90° |
| 2026-05-04 01:50 | 33.63583 | -84.41398 | 969 ft | 14 kts | 90° |
| 2026-05-04 01:50 | 33.63581 | -84.41286 | 969 ft | 12 kts | 92° |
| 2026-05-04 01:51 | 33.63580 | -84.41185 | 969 ft | 11 kts | 90° |
| 2026-05-04 01:51 | 33.63582 | -84.41085 | 967 ft | 12 kts | 88° |
| 2026-05-04 01:51 | 33.63581 | -84.40973 | 965 ft | 14 kts | 91° |
| 2026-05-04 01:51 | 33.63580 | -84.40842 | 960 ft | 17 kts | 90° |
| 2026-05-04 01:52 | 33.63537 | -84.40756 | 955 ft | 12 kts | 162° |
| 2026-05-04 01:52 | 33.63484 | -84.40778 | 956 ft | 7 kts | 244° |
| 2026-05-04 01:52 | 33.63472 | -84.40845 | 959 ft | 11 kts | 266° |
| 2026-05-04 01:52 | 33.63472 | -84.41041 | 966 ft | 50 kts | 271° |
| 2026-05-04 01:53 | 33.63471 | -84.41773 | 977 ft | 121 kts | 270° |
| 2026-05-04 01:53 | 33.63470 | -84.43011 | 1055 ft | 174 kts | 271° |
| 2026-05-04 01:53 | 33.63494 | -84.44531 | 1647 ft | 185 kts | 272° |
| 2026-05-04 01:53 | 33.63517 | -84.46079 | 2423 ft | 190 kts | 271° |
| 2026-05-04 01:54 | 33.63335 | -84.47688 | 2959 ft | 201 kts | 252° |
| 2026-05-04 01:54 | 33.62659 | -84.49216 | 3396 ft | 218 kts | 242° |
| 2026-05-04 01:54 | 33.61908 | -84.50874 | 3877 ft | 233 kts | 245° |
| 2026-05-04 01:54 | 33.61161 | -84.52683 | 4380 ft | 250 kts | 246° |
| 2026-05-04 01:55 | 33.60390 | -84.54584 | 4988 ft | 263 kts | 246° |
| 2026-05-04 01:55 | 33.59487 | -84.56508 | 5785 ft | 270 kts | 232° |
| 2026-05-04 01:55 | 33.58009 | -84.57920 | 6568 ft | 277 kts | 206° |
| 2026-05-04 01:55 | 33.56086 | -84.58465 | 7327 ft | 286 kts | 185° |
| 2026-05-04 01:56 | 33.54070 | -84.58499 | 8199 ft | 288 kts | 181° |
| 2026-05-04 01:56 | 33.52042 | -84.58474 | 8945 ft | 294 kts | 181° |
| 2026-05-04 01:56 | 33.49994 | -84.58282 | 9628 ft | 303 kts | 166° |
| 2026-05-04 01:56 | 33.48051 | -84.57251 | 10366 ft | 308 kts | 148° |
| 2026-05-04 01:57 | 33.46324 | -84.55653 | 10775 ft | 325 kts | 135° |
| 2026-05-04 01:57 | 33.44829 | -84.53523 | 11188 ft | 341 kts | 122° |
| 2026-05-04 01:57 | 33.43734 | -84.50951 | 11602 ft | 356 kts | 108° |
| 2026-05-04 01:57 | 33.43150 | -84.48023 | 12012 ft | 371 kts | 94° |
| 2026-05-04 01:58 | 33.43181 | -84.44872 | 12445 ft | 383 kts | 81° |
| 2026-05-04 01:58 | 33.43740 | -84.41774 | 12993 ft | 392 kts | 74° |
| 2026-05-04 01:58 | 33.44315 | -84.38547 | 13748 ft | 398 kts | 78° |
| 2026-05-04 01:58 | 33.44797 | -84.35287 | 14472 ft | 403 kts | 74° |
| 2026-05-04 01:59 | 33.45643 | -84.32067 | 15231 ft | 406 kts | 69° |
| 2026-05-04 01:59 | 33.46557 | -84.28863 | 15955 ft | 411 kts | 70° |
| 2026-05-04 01:59 | 33.47455 | -84.25611 | 16608 ft | 417 kts | 70° |
| 2026-05-04 01:59 | 33.48347 | -84.22292 | 17278 ft | 422 kts | 71° |
| 2026-05-04 02:00 | 33.49236 | -84.18921 | 17958 ft | 427 kts | 71° |
| 2026-05-04 02:00 | 33.50121 | -84.15515 | 18605 ft | 432 kts | 71° |
| 2026-05-04 02:00 | 33.51000 | -84.12102 | 19260 ft | 436 kts | 71° |
| 2026-05-04 02:00 | 33.51890 | -84.08619 | 19943 ft | 440 kts | 71° |
| 2026-05-04 02:01 | 33.52787 | -84.05090 | 20639 ft | 443 kts | 71° |
| 2026-05-04 02:01 | 33.53680 | -84.01565 | 21212 ft | 448 kts | 71° |
| 2026-05-04 02:01 | 33.54582 | -83.97993 | 21790 ft | 453 kts | 71° |
| 2026-05-04 02:01 | 33.55497 | -83.94357 | 22407 ft | 456 kts | 71° |
| 2026-05-04 02:02 | 33.56413 | -83.90707 | 22986 ft | 460 kts | 71° |
| 2026-05-04 02:02 | 33.57337 | -83.87023 | 23597 ft | 463 kts | 71° |
| 2026-05-04 02:02 | 33.58278 | -83.83350 | 24171 ft | 465 kts | 68° |
| 2026-05-04 02:02 | 33.59528 | -83.79747 | 24683 ft | 467 kts | 63° |
| 2026-05-04 02:03 | 33.60873 | -83.76208 | 25141 ft | 472 kts | 63° |
| 2026-05-04 02:03 | 33.62236 | -83.72634 | 25656 ft | 475 kts | 63° |
| 2026-05-04 02:03 | 33.63619 | -83.69003 | 26174 ft | 478 kts | 63° |
| 2026-05-04 02:03 | 33.64979 | -83.65380 | 26632 ft | 483 kts | 65° |
| 2026-05-04 02:04 | 33.66031 | -83.61507 | 27115 ft | 488 kts | 74° |
| 2026-05-04 02:04 | 33.66804 | -83.57553 | 27586 ft | 493 kts | 75° |
| 2026-05-04 02:04 | 33.67553 | -83.53558 | 28028 ft | 497 kts | 75° |
| 2026-05-04 02:04 | 33.68311 | -83.49493 | 28538 ft | 500 kts | 75° |
| 2026-05-04 02:05 | 33.69067 | -83.45432 | 28999 ft | 503 kts | 75° |
| 2026-05-04 02:05 | 33.69838 | -83.41292 | 29483 ft | 506 kts | 75° |
| 2026-05-04 02:05 | 33.70598 | -83.37199 | 30089 ft | 506 kts | 75° |
| 2026-05-04 02:05 | 33.71366 | -83.33060 | 30756 ft | 504 kts | 76° |
| 2026-05-04 02:06 | 33.72123 | -83.28970 | 31318 ft | 503 kts | 76° |
| 2026-05-04 02:06 | 33.72882 | -83.24867 | 31771 ft | 505 kts | 76° |
| 2026-05-04 02:06 | 33.73645 | -83.20733 | 32159 ft | 507 kts | 76° |
| 2026-05-04 02:06 | 33.74499 | -83.16653 | 32595 ft | 506 kts | 70° |
| 2026-05-04 02:07 | 33.75829 | -83.12691 | 33060 ft | 504 kts | 61° |
| 2026-05-04 02:07 | 33.77582 | -83.08998 | 33511 ft | 501 kts | 56° |
| 2026-05-04 02:07 | 33.79431 | -83.05412 | 33917 ft | 502 kts | 55° |
| 2026-05-04 02:07 | 33.81276 | -83.01851 | 34266 ft | 503 kts | 56° |
| 2026-05-04 02:08 | 33.83130 | -82.98267 | 34599 ft | 503 kts | 56° |
| 2026-05-04 02:08 | 33.85010 | -82.94630 | 34922 ft | 504 kts | 56° |
| 2026-05-04 02:08 | 33.86839 | -82.91086 | 35075 ft | 508 kts | 56° |
| 2026-05-04 02:08 | 33.88717 | -82.87443 | 35093 ft | 509 kts | 56° |
| 2026-05-04 02:09 | 33.92420 | -82.80243 | 35102 ft | 505 kts | 56° |
| 2026-05-04 02:09 | 33.96115 | -82.73045 | 35096 ft | 506 kts | 56° |
| 2026-05-04 02:10 | 33.99811 | -82.65820 | 35090 ft | 505 kts | 56° |
| 2026-05-04 02:10 | 34.03502 | -82.58524 | 35097 ft | 507 kts | 56° |
| 2026-05-04 02:11 | 34.07179 | -82.51238 | 35099 ft | 510 kts | 56° |
| 2026-05-04 02:11 | 34.10861 | -82.43928 | 35094 ft | 507 kts | 56° |
| 2026-05-04 02:12 | 34.14516 | -82.36659 | 35093 ft | 507 kts | 57° |
| 2026-05-04 02:12 | 34.18179 | -82.29361 | 35099 ft | 510 kts | 57° |
| 2026-05-04 02:13 | 34.21850 | -82.22031 | 35087 ft | 509 kts | 57° |
| 2026-05-04 02:13 | 34.25496 | -82.14738 | 35094 ft | 510 kts | 57° |
| 2026-05-04 02:14 | 34.29201 | -82.07378 | 35092 ft | 512 kts | 57° |
| 2026-05-04 02:14 | 34.32910 | -82.00007 | 35088 ft | 510 kts | 57° |
| 2026-05-04 02:15 | 34.36617 | -81.92625 | 35092 ft | 512 kts | 56° |
| 2026-05-04 02:15 | 34.40316 | -81.85237 | 35097 ft | 511 kts | 56° |
| 2026-05-04 02:16 | 34.43995 | -81.77879 | 35090 ft | 513 kts | 57° |
| 2026-05-04 02:16 | 34.47700 | -81.70447 | 35097 ft | 513 kts | 57° |
| 2026-05-04 02:17 | 34.51396 | -81.63021 | 35102 ft | 514 kts | 57° |
| 2026-05-04 02:17 | 34.55079 | -81.55604 | 35097 ft | 514 kts | 57° |
| 2026-05-04 02:18 | 34.58786 | -81.48124 | 35095 ft | 515 kts | 57° |
| 2026-05-04 02:18 | 34.62472 | -81.40668 | 35104 ft | 516 kts | 57° |
| 2026-05-04 02:19 | 34.66171 | -81.33173 | 35096 ft | 516 kts | 57° |
| 2026-05-04 02:19 | 34.69852 | -81.25696 | 35095 ft | 516 kts | 57° |
| 2026-05-04 02:20 | 34.73499 | -81.18273 | 35095 ft | 516 kts | 58° |
| 2026-05-04 02:20 | 34.77193 | -81.10741 | 35099 ft | 518 kts | 58° |
| 2026-05-04 02:21 | 34.80636 | -81.03082 | 35104 ft | 517 kts | 64° |
| 2026-05-04 02:21 | 34.83592 | -80.95111 | 35110 ft | 518 kts | 65° |
| 2026-05-04 02:22 | 34.86541 | -80.87108 | 35086 ft | 516 kts | 65° |
| 2026-05-04 02:22 | 34.89491 | -80.79084 | 35102 ft | 519 kts | 65° |
| 2026-05-04 02:23 | 34.92423 | -80.71091 | 35090 ft | 518 kts | 65° |
| 2026-05-04 02:23 | 34.95380 | -80.63010 | 35098 ft | 521 kts | 65° |
| 2026-05-04 02:24 | 34.98305 | -80.54999 | 35101 ft | 522 kts | 65° |
| 2026-05-04 02:24 | 35.01253 | -80.46900 | 35096 ft | 521 kts | 65° |
| 2026-05-04 02:25 | 35.04190 | -80.38816 | 35089 ft | 521 kts | 65° |
| 2026-05-04 02:25 | 35.07123 | -80.30718 | 35084 ft | 523 kts | 65° |
| 2026-05-04 02:26 | 35.10056 | -80.22601 | 35092 ft | 524 kts | 65° |
| 2026-05-04 02:26 | 35.12994 | -80.14452 | 35089 ft | 524 kts | 65° |
| 2026-05-04 02:27 | 35.15943 | -80.06247 | 35083 ft | 524 kts | 65° |
| 2026-05-04 02:27 | 35.18879 | -79.98059 | 35096 ft | 526 kts | 65° |
| 2026-05-04 02:28 | 35.21796 | -79.89923 | 35081 ft | 526 kts | 65° |
| 2026-05-04 02:28 | 35.24726 | -79.81730 | 35087 ft | 527 kts | 65° |
| 2026-05-04 02:29 | 35.27675 | -79.73459 | 35092 ft | 528 kts | 65° |
| 2026-05-04 02:29 | 35.30599 | -79.65241 | 35095 ft | 529 kts | 65° |
| 2026-05-04 02:30 | 35.33532 | -79.56971 | 35086 ft | 529 kts | 65° |
| 2026-05-04 02:30 | 35.36459 | -79.48700 | 35093 ft | 530 kts | 65° |
| 2026-05-04 02:31 | 35.39379 | -79.40424 | 35104 ft | 528 kts | 65° |
| 2026-05-04 02:31 | 35.42299 | -79.32127 | 35079 ft | 532 kts | 66° |
| 2026-05-04 02:32 | 35.45219 | -79.23808 | 35086 ft | 532 kts | 66° |
| 2026-05-04 02:32 | 35.48143 | -79.15455 | 35095 ft | 532 kts | 66° |
| 2026-05-04 02:33 | 35.51042 | -79.07149 | 35100 ft | 532 kts | 66° |
| 2026-05-04 02:33 | 35.53952 | -78.98795 | 35105 ft | 535 kts | 66° |
| 2026-05-04 02:34 | 35.56869 | -78.90391 | 35106 ft | 533 kts | 66° |
| 2026-05-04 02:34 | 35.59783 | -78.81976 | 35113 ft | 534 kts | 66° |
| 2026-05-04 02:35 | 35.62677 | -78.73594 | 35084 ft | 534 kts | 66° |
| 2026-05-04 02:35 | 35.65568 | -78.65190 | 35118 ft | 536 kts | 66° |
| 2026-05-04 02:36 | 35.68461 | -78.56758 | 35102 ft | 534 kts | 66° |
| 2026-05-04 02:36 | 35.71349 | -78.48320 | 35108 ft | 536 kts | 66° |
| 2026-05-04 02:37 | 35.74235 | -78.39864 | 35108 ft | 533 kts | 66° |
| 2026-05-04 02:37 | 35.77095 | -78.31469 | 35084 ft | 535 kts | 66° |
| 2026-05-04 02:38 | 35.79969 | -78.23010 | 35094 ft | 535 kts | 66° |
| 2026-05-04 02:38 | 35.82839 | -78.14539 | 35089 ft | 536 kts | 66° |
| 2026-05-04 02:39 | 35.85696 | -78.06083 | 35099 ft | 535 kts | 66° |
| 2026-05-04 02:39 | 35.88565 | -77.97568 | 35092 ft | 537 kts | 66° |
| 2026-05-04 02:40 | 35.91432 | -77.89033 | 35111 ft | 536 kts | 66° |
| 2026-05-04 02:40 | 35.94266 | -77.80576 | 35105 ft | 537 kts | 66° |
| 2026-05-04 02:41 | 35.97302 | -77.72177 | 35110 ft | 536 kts | 57° |
| 2026-05-04 02:41 | 36.01717 | -77.64906 | 35119 ft | 530 kts | 43° |
| 2026-05-04 02:42 | 36.06749 | -77.58168 | 35105 ft | 530 kts | 43° |
| 2026-05-04 02:42 | 36.11771 | -77.51443 | 35111 ft | 531 kts | 43° |
| 2026-05-04 02:43 | 36.16786 | -77.44703 | 35110 ft | 530 kts | 43° |
| 2026-05-04 02:43 | 36.21795 | -77.37954 | 35106 ft | 531 kts | 43° |
| 2026-05-04 02:44 | 36.26792 | -77.31205 | 35100 ft | 534 kts | 44° |
| 2026-05-04 02:44 | 36.31850 | -77.24487 | 35099 ft | 528 kts | 39° |
| 2026-05-04 02:45 | 36.37302 | -77.18347 | 35100 ft | 529 kts | 37° |
| 2026-05-04 02:45 | 36.42767 | -77.12245 | 35110 ft | 529 kts | 37° |
| 2026-05-04 02:46 | 36.48200 | -77.06160 | 35100 ft | 528 kts | 37° |
| 2026-05-04 02:46 | 36.53701 | -76.99987 | 35103 ft | 532 kts | 37° |
| 2026-05-04 02:47 | 36.59185 | -76.93813 | 35105 ft | 531 kts | 37° |
| 2026-05-04 02:47 | 36.64670 | -76.87628 | 35112 ft | 532 kts | 37° |
| 2026-05-04 02:48 | 36.70136 | -76.81448 | 35117 ft | 531 kts | 37° |
| 2026-05-04 02:48 | 36.75641 | -76.75215 | 35118 ft | 533 kts | 37° |
| 2026-05-04 02:49 | 36.81092 | -76.69027 | 35117 ft | 532 kts | 37° |
| 2026-05-04 02:49 | 36.86575 | -76.62792 | 35127 ft | 535 kts | 37° |
| 2026-05-04 02:50 | 36.92077 | -76.56522 | 35117 ft | 533 kts | 37° |
| 2026-05-04 02:50 | 36.97534 | -76.50289 | 35125 ft | 533 kts | 37° |
| 2026-05-04 02:51 | 37.03026 | -76.44006 | 35117 ft | 535 kts | 37° |
| 2026-05-04 02:51 | 37.08514 | -76.37714 | 35118 ft | 534 kts | 37° |
| 2026-05-04 02:52 | 37.13941 | -76.31480 | 35098 ft | 537 kts | 37° |
| 2026-05-04 02:52 | 37.19382 | -76.25212 | 35097 ft | 535 kts | 37° |
| 2026-05-04 02:53 | 37.24887 | -76.18862 | 35100 ft | 535 kts | 37° |
| 2026-05-04 02:53 | 37.30362 | -76.12534 | 35095 ft | 537 kts | 37° |
| 2026-05-04 02:54 | 37.35829 | -76.06199 | 35091 ft | 535 kts | 37° |
| 2026-05-04 02:54 | 37.41285 | -75.99867 | 35095 ft | 536 kts | 37° |
| 2026-05-04 02:55 | 37.49511 | -75.90293 | 35092 ft | 537 kts | 37° |
| 2026-05-04 02:56 | 37.55264 | -75.84362 | 35093 ft | 525 kts | 24° |
| 2026-05-04 02:56 | 37.61517 | -75.79646 | 35096 ft | 523 kts | 22° |
| 2026-05-04 02:57 | 37.67776 | -75.74976 | 35098 ft | 521 kts | 22° |
| 2026-05-04 02:57 | 37.74024 | -75.70295 | 35096 ft | 522 kts | 22° |
| 2026-05-04 02:58 | 37.80300 | -75.65578 | 35092 ft | 522 kts | 22° |
| 2026-05-04 02:58 | 37.86509 | -75.60807 | 35085 ft | 525 kts | 26° |
| 2026-05-04 02:59 | 37.92490 | -75.55559 | 35080 ft | 523 kts | 27° |
| 2026-05-04 02:59 | 37.98515 | -75.50259 | 35095 ft | 528 kts | 26° |
| 2026-05-04 03:00 | 38.04528 | -75.44978 | 35085 ft | 527 kts | 26° |
| 2026-05-04 03:00 | 38.10495 | -75.39483 | 35083 ft | 529 kts | 28° |
| 2026-05-04 03:01 | 38.16306 | -75.33966 | 35065 ft | 531 kts | 29° |
| 2026-05-04 03:01 | 38.22253 | -75.28326 | 35047 ft | 530 kts | 29° |
| 2026-05-04 03:02 | 38.28155 | -75.22728 | 35053 ft | 529 kts | 29° |
| 2026-05-04 03:02 | 38.34053 | -75.17132 | 35065 ft | 533 kts | 29° |
| 2026-05-04 03:03 | 38.39994 | -75.11483 | 35173 ft | 533 kts | 29° |
| 2026-05-04 03:03 | 38.45875 | -75.05881 | 35074 ft | 529 kts | 29° |
| 2026-05-04 03:04 | 38.51620 | -74.99851 | 35069 ft | 538 kts | 34° |
| 2026-05-04 03:04 | 38.57242 | -74.93707 | 35063 ft | 533 kts | 32° |
| 2026-05-04 03:05 | 38.63036 | -74.87672 | 35057 ft | 534 kts | 32° |
| 2026-05-04 03:05 | 38.68772 | -74.81696 | 35066 ft | 536 kts | 31° |
| 2026-05-04 03:06 | 38.74546 | -74.75665 | 35063 ft | 532 kts | 31° |
| 2026-05-04 03:06 | 38.80139 | -74.69362 | 35067 ft | 538 kts | 35° |
| 2026-05-04 03:07 | 38.85625 | -74.62882 | 35062 ft | 537 kts | 35° |
| 2026-05-04 03:07 | 38.91131 | -74.56394 | 35057 ft | 535 kts | 35° |
| 2026-05-04 03:08 | 38.96648 | -74.50022 | 35059 ft | 532 kts | 32° |
| 2026-05-04 03:08 | 39.02311 | -74.43952 | 35050 ft | 530 kts | 32° |
| 2026-05-04 03:09 | 39.07961 | -74.37881 | 35061 ft | 530 kts | 32° |
| 2026-05-04 03:09 | 39.13657 | -74.31737 | 35027 ft | 532 kts | 33° |
| 2026-05-04 03:10 | 39.19298 | -74.25626 | 35022 ft | 531 kts | 33° |
| 2026-05-04 03:10 | 39.24963 | -74.19475 | 35020 ft | 530 kts | 33° |
| 2026-05-04 03:11 | 39.30564 | -74.13376 | 35023 ft | 530 kts | 33° |
| 2026-05-04 03:11 | 39.36198 | -74.07229 | 35020 ft | 530 kts | 33° |
| 2026-05-04 03:12 | 39.41832 | -74.01066 | 35024 ft | 529 kts | 33° |
| 2026-05-04 03:12 | 39.47432 | -73.94919 | 35013 ft | 527 kts | 33° |
| 2026-05-04 03:13 | 39.53032 | -73.88760 | 35016 ft | 528 kts | 33° |
| 2026-05-04 03:13 | 39.58595 | -73.82626 | 35006 ft | 525 kts | 33° |
| 2026-05-04 03:14 | 39.64143 | -73.76497 | 35014 ft | 527 kts | 33° |
| 2026-05-04 03:14 | 39.69740 | -73.70299 | 35007 ft | 526 kts | 34° |
| 2026-05-04 03:15 | 39.75259 | -73.64172 | 35010 ft | 523 kts | 34° |
| 2026-05-04 03:15 | 39.80829 | -73.57979 | 35010 ft | 524 kts | 34° |
| 2026-05-04 03:16 | 39.86324 | -73.51855 | 35003 ft | 522 kts | 33° |
| 2026-05-04 03:16 | 39.91857 | -73.45692 | 34995 ft | 521 kts | 34° |
| 2026-05-04 03:17 | 39.97347 | -73.39566 | 35000 ft | 520 kts | 34° |
| 2026-05-04 03:17 | 40.02850 | -73.33411 | 34986 ft | 520 kts | 34° |
| 2026-05-04 03:18 | 40.08339 | -73.27257 | 34985 ft | 522 kts | 34° |
| 2026-05-04 03:18 | 40.13770 | -73.21149 | 34978 ft | 521 kts | 35° |
| 2026-05-04 03:19 | 40.19260 | -73.14954 | 34976 ft | 521 kts | 35° |
| 2026-05-04 03:19 | 40.24707 | -73.08792 | 34981 ft | 518 kts | 35° |
| 2026-05-04 03:20 | 40.30127 | -73.02651 | 34982 ft | 518 kts | 35° |
| 2026-05-04 03:20 | 40.35573 | -72.96465 | 34975 ft | 519 kts | 35° |
| 2026-05-04 03:21 | 40.41037 | -72.90246 | 34976 ft | 517 kts | 35° |
| 2026-05-04 03:21 | 40.46424 | -72.84100 | 34976 ft | 516 kts | 35° |
| 2026-05-04 03:22 | 40.51830 | -72.77919 | 34974 ft | 515 kts | 35° |
| 2026-05-04 03:22 | 40.57240 | -72.71720 | 34980 ft | 516 kts | 35° |
| 2026-05-04 03:23 | 40.62655 | -72.65498 | 34971 ft | 516 kts | 36° |
| 2026-05-04 03:23 | 40.67275 | -72.58263 | 34973 ft | 525 kts | 55° |
| 2026-05-04 03:24 | 40.70184 | -72.49370 | 34970 ft | 535 kts | 73° |
| 2026-05-04 03:24 | 40.71688 | -72.39786 | 34977 ft | 533 kts | 77° |
| 2026-05-04 03:25 | 40.73083 | -72.30156 | 34963 ft | 537 kts | 78° |
| 2026-05-04 03:25 | 40.74463 | -72.20559 | 34965 ft | 533 kts | 78° |
| 2026-05-04 03:26 | 40.75834 | -72.10968 | 34961 ft | 536 kts | 78° |
| 2026-05-04 03:26 | 40.77203 | -72.01323 | 34963 ft | 534 kts | 78° |
| 2026-05-04 03:27 | 40.78565 | -71.91665 | 34966 ft | 536 kts | 78° |
| 2026-05-04 03:27 | 40.79907 | -71.82095 | 34969 ft | 535 kts | 78° |
| 2026-05-04 03:28 | 40.81258 | -71.72393 | 34974 ft | 535 kts | 78° |
| 2026-05-04 03:28 | 40.82587 | -71.62798 | 34970 ft | 536 kts | 78° |
| 2026-05-04 03:29 | 40.83910 | -71.53177 | 34975 ft | 534 kts | 78° |
| 2026-05-04 03:29 | 40.85236 | -71.43474 | 34976 ft | 534 kts | 78° |
| 2026-05-04 03:30 | 40.86543 | -71.33839 | 34974 ft | 534 kts | 79° |
| 2026-05-04 03:30 | 40.87832 | -71.24282 | 34958 ft | 534 kts | 79° |
| 2026-05-04 03:31 | 40.89130 | -71.14593 | 34951 ft | 534 kts | 79° |
| 2026-05-04 03:31 | 40.90408 | -71.04993 | 34937 ft | 532 kts | 79° |
| 2026-05-04 03:32 | 40.91681 | -70.95364 | 34946 ft | 534 kts | 79° |
| 2026-05-04 03:32 | 40.92950 | -70.85703 | 34945 ft | 534 kts | 79° |
| 2026-05-04 03:33 | 40.94211 | -70.76035 | 34947 ft | 535 kts | 79° |
| 2026-05-04 03:33 | 40.95460 | -70.66396 | 34941 ft | 533 kts | 79° |
| 2026-05-04 03:34 | 40.96708 | -70.56699 | 34941 ft | 535 kts | 79° |
| 2026-05-04 03:34 | 40.97937 | -70.47078 | 34938 ft | 533 kts | 79° |
| 2026-05-04 03:35 | 40.99162 | -70.37426 | 34938 ft | 534 kts | 79° |
| 2026-05-04 03:35 | 41.00386 | -70.27711 | 34934 ft | 535 kts | 81° |
| 2026-05-04 03:36 | 41.01595 | -70.18052 | 34921 ft | 532 kts | 80° |
| 2026-05-04 03:36 | 41.02790 | -70.08437 | 34928 ft | 533 kts | 80° |
| 2026-05-04 03:37 | 41.03986 | -69.98743 | 34920 ft | 533 kts | 80° |
| 2026-05-04 03:37 | 41.05172 | -69.89062 | 34924 ft | 533 kts | 80° |
| 2026-05-04 03:38 | 41.06512 | -69.79442 | 34928 ft | 532 kts | 72° |
| 2026-05-04 03:38 | 41.09377 | -69.70549 | 34936 ft | 529 kts | 56° |
| 2026-05-04 03:39 | 41.13629 | -69.62945 | 34922 ft | 522 kts | 47° |
| 2026-05-04 03:39 | 41.18168 | -69.55462 | 34926 ft | 524 kts | 47° |
| 2026-05-04 03:40 | 41.22723 | -69.47862 | 34914 ft | 524 kts | 48° |
| 2026-05-04 03:40 | 41.27234 | -69.40269 | 34916 ft | 522 kts | 48° |
| 2026-05-04 03:41 | 41.31725 | -69.32665 | 34900 ft | 523 kts | 49° |
| 2026-05-04 03:41 | 41.36201 | -69.25053 | 34905 ft | 522 kts | 49° |
| 2026-05-04 03:42 | 41.40676 | -69.17419 | 34897 ft | 523 kts | 49° |
| 2026-05-04 03:42 | 41.45130 | -69.09795 | 34895 ft | 523 kts | 49° |
| 2026-05-04 03:43 | 41.49579 | -69.02161 | 34900 ft | 525 kts | 49° |
| 2026-05-04 03:43 | 41.54019 | -68.94518 | 34890 ft | 522 kts | 49° |
| 2026-05-04 03:44 | 41.58472 | -68.86835 | 34891 ft | 522 kts | 49° |
| 2026-05-04 03:44 | 41.62880 | -68.79211 | 34882 ft | 522 kts | 49° |
| 2026-05-04 03:45 | 41.67308 | -68.71530 | 34881 ft | 522 kts | 49° |
| 2026-05-04 03:45 | 41.71730 | -68.63844 | 34879 ft | 522 kts | 49° |
| 2026-05-04 03:46 | 41.76155 | -68.56130 | 34871 ft | 520 kts | 49° |
| 2026-05-04 03:46 | 41.80527 | -68.48489 | 34866 ft | 521 kts | 49° |
| 2026-05-04 03:47 | 41.84950 | -68.40740 | 34862 ft | 521 kts | 50° |
| 2026-05-04 03:47 | 41.89337 | -68.33034 | 34853 ft | 521 kts | 50° |
| 2026-05-04 03:48 | 41.93702 | -68.25349 | 34846 ft | 521 kts | 50° |
| 2026-05-04 03:48 | 41.98085 | -68.17610 | 34848 ft | 521 kts | 50° |
| 2026-05-04 03:49 | 42.02470 | -68.09847 | 34844 ft | 520 kts | 50° |
| 2026-05-04 03:49 | 42.06841 | -68.02091 | 34843 ft | 521 kts | 50° |
| 2026-05-04 03:50 | 42.11191 | -67.94353 | 34827 ft | 519 kts | 50° |
| 2026-05-04 03:50 | 42.15532 | -67.86611 | 34831 ft | 520 kts | 51° |
| 2026-05-04 03:51 | 42.19891 | -67.78816 | 34836 ft | 520 kts | 51° |
| 2026-05-04 03:51 | 42.24215 | -67.71062 | 34827 ft | 519 kts | 51° |
| 2026-05-04 03:52 | 42.28525 | -67.63313 | 34827 ft | 520 kts | 51° |
| 2026-05-04 03:52 | 42.32845 | -67.55529 | 34811 ft | 519 kts | 51° |
| 2026-05-04 03:53 | 42.37146 | -67.47759 | 34806 ft | 519 kts | 51° |
| 2026-05-04 03:53 | 42.41471 | -67.39923 | 34806 ft | 519 kts | 51° |
| 2026-05-04 03:54 | 42.45784 | -67.32089 | 34787 ft | 518 kts | 51° |
| 2026-05-04 03:54 | 42.50067 | -67.24289 | 34781 ft | 519 kts | 51° |
| 2026-05-04 03:55 | 42.54366 | -67.16441 | 34785 ft | 519 kts | 52° |
| 2026-05-04 03:55 | 42.58629 | -67.08636 | 34778 ft | 518 kts | 51° |
| 2026-05-04 03:56 | 42.62840 | -67.00658 | 34761 ft | 519 kts | 58° |
| 2026-05-04 03:56 | 42.66059 | -66.91933 | 34753 ft | 520 kts | 64° |
| 2026-05-04 03:57 | 42.69112 | -66.83080 | 34755 ft | 519 kts | 64° |
| 2026-05-04 03:57 | 42.72157 | -66.74196 | 34757 ft | 520 kts | 64° |
| 2026-05-04 03:58 | 42.76693 | -66.60879 | 34744 ft | 519 kts | 64° |
| 2026-05-04 03:58 | 42.79727 | -66.51928 | 34738 ft | 520 kts | 64° |
| 2026-05-04 03:59 | 42.82725 | -66.43050 | 34739 ft | 520 kts | 64° |
| 2026-05-04 03:59 | 42.85742 | -66.34084 | 34724 ft | 519 kts | 65° |
| 2026-05-04 04:00 | 42.88736 | -66.25159 | 34718 ft | 520 kts | 65° |
| 2026-05-04 04:00 | 42.91719 | -66.16232 | 34711 ft | 520 kts | 65° |
| 2026-05-04 04:01 | 42.94692 | -66.07307 | 34704 ft | 521 kts | 65° |
| 2026-05-04 04:01 | 42.97683 | -65.98302 | 34693 ft | 520 kts | 65° |
| 2026-05-04 04:02 | 43.00643 | -65.89356 | 34693 ft | 521 kts | 65° |
| 2026-05-04 04:02 | 43.03618 | -65.80335 | 34690 ft | 520 kts | 65° |
| 2026-05-04 04:03 | 43.06570 | -65.71354 | 34681 ft | 520 kts | 65° |
| 2026-05-04 04:03 | 43.09522 | -65.62346 | 34691 ft | 520 kts | 65° |
| 2026-05-04 04:04 | 43.12472 | -65.53312 | 34664 ft | 519 kts | 65° |
| 2026-05-04 04:04 | 43.15396 | -65.44324 | 34656 ft | 519 kts | 65° |
| 2026-05-04 04:05 | 43.18322 | -65.35304 | 34655 ft | 520 kts | 65° |
| 2026-05-04 04:05 | 43.21249 | -65.26249 | 34635 ft | 519 kts | 66° |
| 2026-05-04 04:06 | 43.24149 | -65.17247 | 34629 ft | 520 kts | 66° |
| 2026-05-04 04:06 | 43.27062 | -65.08172 | 34622 ft | 521 kts | 66° |
| 2026-05-04 04:07 | 43.29972 | -64.99076 | 34613 ft | 522 kts | 66° |
| 2026-05-04 04:07 | 43.32877 | -64.89966 | 34608 ft | 521 kts | 66° |
| 2026-05-04 04:08 | 43.35758 | -64.80898 | 34581 ft | 520 kts | 66° |
| 2026-05-04 04:08 | 43.38642 | -64.71792 | 34593 ft | 522 kts | 66° |
| 2026-05-04 04:09 | 43.41515 | -64.62688 | 34586 ft | 521 kts | 66° |
| 2026-05-04 04:09 | 43.44379 | -64.53579 | 34572 ft | 522 kts | 66° |
| 2026-05-04 04:10 | 43.47248 | -64.44424 | 34567 ft | 521 kts | 66° |
| 2026-05-04 04:10 | 43.50102 | -64.35287 | 34557 ft | 521 kts | 67° |
| 2026-05-04 04:11 | 43.52928 | -64.26203 | 34543 ft | 520 kts | 68° |
| 2026-05-04 04:11 | 43.55772 | -64.17033 | 34537 ft | 521 kts | 68° |
| 2026-05-04 04:12 | 43.58604 | -64.07870 | 34532 ft | 521 kts | 68° |
| 2026-05-04 04:12 | 43.61423 | -63.98715 | 34529 ft | 521 kts | 68° |
| 2026-05-04 04:13 | 43.64232 | -63.89562 | 34513 ft | 521 kts | 68° |
| 2026-05-04 04:13 | 43.67037 | -63.80386 | 34519 ft | 520 kts | 68° |
| 2026-05-04 04:14 | 43.69833 | -63.71207 | 34506 ft | 520 kts | 68° |
| 2026-05-04 04:14 | 43.72644 | -63.61950 | 34496 ft | 521 kts | 68° |
| 2026-05-04 04:15 | 43.75422 | -63.52767 | 34485 ft | 521 kts | 68° |
| 2026-05-04 04:15 | 43.78200 | -63.43551 | 34469 ft | 521 kts | 68° |
| 2026-05-04 04:16 | 43.80973 | -63.34316 | 34465 ft | 520 kts | 69° |
| 2026-05-04 04:16 | 43.83731 | -63.25102 | 34439 ft | 521 kts | 69° |
| 2026-05-04 04:17 | 43.86486 | -63.15859 | 34432 ft | 521 kts | 69° |
| 2026-05-04 04:17 | 43.89240 | -63.06592 | 34422 ft | 521 kts | 69° |
| 2026-05-04 04:18 | 43.91979 | -62.97339 | 34419 ft | 522 kts | 69° |
| 2026-05-04 04:18 | 43.94719 | -62.88046 | 34423 ft | 520 kts | 69° |
| 2026-05-04 04:19 | 43.97439 | -62.78792 | 34408 ft | 521 kts | 69° |
| 2026-05-04 04:19 | 44.00152 | -62.69525 | 34402 ft | 520 kts | 69° |
| 2026-05-04 04:20 | 44.02874 | -62.60195 | 34397 ft | 521 kts | 69° |
| 2026-05-04 04:20 | 44.05567 | -62.50928 | 34380 ft | 521 kts | 69° |
| 2026-05-04 04:21 | 44.08267 | -62.41601 | 34375 ft | 522 kts | 69° |
| 2026-05-04 04:21 | 44.10969 | -62.32235 | 34338 ft | 521 kts | 70° |
| 2026-05-04 04:22 | 44.13644 | -62.22928 | 34331 ft | 523 kts | 70° |
| 2026-05-04 04:22 | 44.16318 | -62.13590 | 34296 ft | 520 kts | 70° |
| 2026-05-04 04:23 | 44.18996 | -62.04200 | 34296 ft | 522 kts | 70° |
| 2026-05-04 04:23 | 44.21647 | -61.94869 | 34301 ft | 522 kts | 71° |
| 2026-05-04 04:24 | 44.24297 | -61.85510 | 34288 ft | 522 kts | 71° |
| 2026-05-04 04:24 | 44.26956 | -61.76080 | 34283 ft | 521 kts | 71° |
| 2026-05-04 04:25 | 44.29596 | -61.66685 | 34271 ft | 522 kts | 71° |
| 2026-05-04 04:25 | 44.32229 | -61.57276 | 34263 ft | 522 kts | 71° |
| 2026-05-04 04:26 | 44.34851 | -61.47870 | 34257 ft | 521 kts | 71° |
| 2026-05-04 04:26 | 44.37476 | -61.38420 | 34231 ft | 522 kts | 71° |
| 2026-05-04 04:27 | 44.40080 | -61.29007 | 34265 ft | 523 kts | 72° |
| 2026-05-04 04:27 | 44.42674 | -61.19595 | 34254 ft | 522 kts | 72° |
| 2026-05-04 04:28 | 44.45275 | -61.10123 | 34193 ft | 520 kts | 72° |
| 2026-05-04 04:28 | 44.47864 | -61.00652 | 34225 ft | 523 kts | 72° |
| 2026-05-04 04:29 | 44.50429 | -60.91237 | 34231 ft | 522 kts | 72° |
| 2026-05-04 04:29 | 44.53011 | -60.81720 | 34210 ft | 522 kts | 72° |
| 2026-05-04 04:30 | 44.55569 | -60.72254 | 34212 ft | 522 kts | 72° |
| 2026-05-04 04:30 | 44.58116 | -60.62792 | 34210 ft | 522 kts | 72° |
| 2026-05-04 04:31 | 44.60664 | -60.53289 | 34252 ft | 524 kts | 73° |
| 2026-05-04 04:31 | 44.63208 | -60.43764 | 34234 ft | 522 kts | 73° |
| 2026-05-04 04:32 | 44.65734 | -60.34271 | 34223 ft | 521 kts | 73° |
| 2026-05-04 04:32 | 44.68262 | -60.24727 | 34229 ft | 522 kts | 73° |
| 2026-05-04 04:33 | 44.70778 | -60.15193 | 34225 ft | 522 kts | 74° |
| 2026-05-04 04:33 | 44.73277 | -60.05684 | 34193 ft | 520 kts | 74° |
| 2026-05-04 04:34 | 44.75784 | -59.96107 | 34244 ft | 522 kts | 74° |
| 2026-05-04 04:34 | 44.78280 | -59.86531 | 34255 ft | 522 kts | 74° |
| 2026-05-04 04:35 | 44.80746 | -59.77036 | 34250 ft | 522 kts | 74° |
| 2026-05-04 04:35 | 44.83232 | -59.67420 | 34264 ft | 520 kts | 74° |
| 2026-05-04 04:36 | 44.85694 | -59.57862 | 34255 ft | 521 kts | 74° |
| 2026-05-04 04:36 | 44.88149 | -59.48290 | 34251 ft | 521 kts | 75° |
| 2026-05-04 04:37 | 44.93035 | -59.29123 | 34282 ft | 520 kts | 76° |
| 2026-05-04 04:38 | 44.95470 | -59.19508 | 34287 ft | 520 kts | 76° |
| 2026-05-04 04:38 | 44.97901 | -59.09867 | 34304 ft | 522 kts | 76° |
| 2026-05-04 04:39 | 45.00321 | -59.00235 | 34324 ft | 522 kts | 76° |
| 2026-05-04 04:39 | 45.02723 | -58.90638 | 34316 ft | 520 kts | 76° |
| 2026-05-04 04:40 | 45.05130 | -58.80973 | 34322 ft | 521 kts | 76° |
| 2026-05-04 04:40 | 45.07523 | -58.71327 | 34320 ft | 519 kts | 76° |
| 2026-05-04 04:41 | 45.09916 | -58.61633 | 34337 ft | 522 kts | 76° |
| 2026-05-04 04:41 | 45.12305 | -58.51923 | 34330 ft | 521 kts | 77° |
| 2026-05-04 04:42 | 45.14683 | -58.42215 | 34353 ft | 520 kts | 77° |
| 2026-05-04 04:42 | 45.17034 | -58.32572 | 34352 ft | 521 kts | 78° |
| 2026-05-04 04:43 | 45.19395 | -58.22850 | 34376 ft | 520 kts | 78° |
| 2026-05-04 04:43 | 45.21737 | -58.13161 | 34364 ft | 521 kts | 78° |
| 2026-05-04 04:44 | 45.24077 | -58.03441 | 34370 ft | 521 kts | 78° |
| 2026-05-04 04:44 | 45.26414 | -57.93689 | 34376 ft | 522 kts | 78° |
| 2026-05-04 04:45 | 45.28743 | -57.83931 | 34394 ft | 520 kts | 78° |
| 2026-05-04 04:47 | 45.36828 | -57.49709 | 34407 ft | 520 kts | 78° |
| 2026-05-04 04:47 | 45.39129 | -57.39867 | 34416 ft | 522 kts | 78° |
| 2026-05-04 04:48 | 45.41404 | -57.30104 | 34419 ft | 519 kts | 79° |
| 2026-05-04 04:49 | 45.47048 | -57.05674 | 34436 ft | 519 kts | 80° |
| 2026-05-04 04:49 | 45.49304 | -56.95829 | 34440 ft | 523 kts | 80° |
| 2026-05-04 04:50 | 45.51557 | -56.85956 | 34449 ft | 523 kts | 80° |
| 2026-05-04 04:50 | 45.53788 | -56.76136 | 34459 ft | 523 kts | 79° |
| 2026-05-04 04:51 | 45.56001 | -56.66353 | 34480 ft | 519 kts | 80° |
| 2026-05-04 04:51 | 45.58212 | -56.56524 | 34470 ft | 521 kts | 80° |
| 2026-05-04 04:52 | 45.60425 | -56.46648 | 34470 ft | 521 kts | 80° |
| 2026-05-04 04:52 | 45.62626 | -56.36772 | 34492 ft | 524 kts | 81° |
| 2026-05-04 04:53 | 45.64814 | -56.26936 | 34474 ft | 515 kts | 81° |
| 2026-05-04 04:53 | 45.66997 | -56.17033 | 34452 ft | 525 kts | 81° |
| 2026-05-04 04:54 | 45.69175 | -56.07138 | 34527 ft | 522 kts | 82° |
| 2026-05-04 04:54 | 45.71357 | -55.97168 | 34508 ft | 522 kts | 81° |
| 2026-05-04 04:55 | 45.73510 | -55.87289 | 34521 ft | 520 kts | 82° |
| 2026-05-04 04:55 | 45.75654 | -55.77388 | 34530 ft | 525 kts | 82° |
| 2026-05-04 04:56 | 45.77806 | -55.67419 | 34534 ft | 524 kts | 81° |
| 2026-05-04 04:56 | 45.79944 | -55.57469 | 34526 ft | 521 kts | 82° |
| 2026-05-04 04:57 | 45.82051 | -55.47606 | 34548 ft | 524 kts | 82° |
| 2026-05-04 04:57 | 45.84172 | -55.37627 | 34538 ft | 522 kts | 82° |
| 2026-05-04 04:58 | 45.86288 | -55.27634 | 34539 ft | 520 kts | 83° |
| 2026-05-04 04:58 | 45.88381 | -55.17686 | 34549 ft | 526 kts | 83° |
| 2026-05-04 04:59 | 45.90482 | -55.07673 | 34557 ft | 521 kts | 83° |
| 2026-05-04 04:59 | 45.92540 | -54.97805 | 34547 ft | 523 kts | 83° |
| 2026-05-04 05:00 | 45.94619 | -54.87786 | 34552 ft | 521 kts | 83° |
| 2026-05-04 05:01 | 45.97713 | -54.72774 | 34568 ft | 524 kts | 83° |
| 2026-05-04 05:01 | 45.99760 | -54.62796 | 34569 ft | 522 kts | 83° |
| 2026-05-04 05:02 | 46.01805 | -54.52758 | 34582 ft | 525 kts | 83° |
| 2026-05-04 05:02 | 46.03822 | -54.42839 | 34577 ft | 521 kts | 83° |
| 2026-05-04 05:03 | 46.05868 | -54.32682 | 34577 ft | 529 kts | 84° |
| 2026-05-04 05:04 | 46.09911 | -54.12522 | 34581 ft | 524 kts | 84° |
| 2026-05-04 05:04 | 46.11927 | -54.02382 | 34563 ft | 524 kts | 84° |
| 2026-05-04 05:06 | 46.19913 | -53.61674 | 34592 ft | 531 kts | 83° |
| 2026-05-04 05:07 | 46.21907 | -53.51378 | 34613 ft | 534 kts | 83° |
| 2026-05-04 05:07 | 46.23874 | -53.41180 | 34618 ft | 530 kts | 83° |
| 2026-05-04 05:09 | 46.32653 | -52.94933 | 34631 ft | 528 kts | 83° |
| 2026-05-04 05:10 | 46.34576 | -52.84624 | 34636 ft | 537 kts | 83° |
| 2026-05-04 05:10 | 46.36505 | -52.74272 | 34641 ft | 528 kts | 83° |
| 2026-05-04 05:11 | 46.38419 | -52.63898 | 34648 ft | 538 kts | 83° |
| 2026-05-04 05:11 | 46.40342 | -52.53449 | 34648 ft | 534 kts | 82° |
| 2026-05-04 05:12 | 46.42224 | -52.43163 | 34650 ft | 532 kts | 83° |
| 2026-05-04 05:12 | 46.44121 | -52.32713 | 34662 ft | 538 kts | 83° |
| 2026-05-04 05:13 | 46.46003 | -52.22317 | 34663 ft | 532 kts | 83° |
| 2026-05-04 05:13 | 46.46933 | -52.17157 | 34777 ft | 530 kts | 83° |
| 2026-05-04 05:13 | 46.47866 | -52.11943 | 34689 ft | 537 kts | 83° |
| 2026-05-04 05:14 | 46.49725 | -52.01553 | 34683 ft | 532 kts | 83° |
| 2026-05-04 05:14 | 46.52035 | -51.91208 | 34708 ft | 546 kts | 75° |
| 2026-05-04 05:15 | 46.54771 | -51.81080 | 34709 ft | 539 kts | 75° |
| 2026-05-04 05:15 | 46.57471 | -51.70883 | 34728 ft | 542 kts | 75° |
| 2026-05-04 05:16 | 46.60124 | -51.60712 | 34726 ft | 542 kts | 75° |
| 2026-05-04 05:16 | 46.62768 | -51.50470 | 34736 ft | 543 kts | 75° |
| 2026-05-04 05:17 | 46.65402 | -51.40190 | 34746 ft | 542 kts | 75° |
| 2026-05-04 05:17 | 46.68026 | -51.29874 | 34746 ft | 542 kts | 76° |
| 2026-05-04 05:18 | 46.70610 | -51.19671 | 34755 ft | 540 kts | 75° |
| 2026-05-04 05:18 | 46.73194 | -51.09401 | 34773 ft | 542 kts | 75° |
| 2026-05-04 05:19 | 46.75766 | -50.99137 | 34787 ft | 539 kts | 75° |
| 2026-05-04 05:19 | 46.78348 | -50.88777 | 34787 ft | 543 kts | 75° |
| 2026-05-04 05:20 | 46.80909 | -50.78467 | 34789 ft | 539 kts | 75° |
| 2026-05-04 05:20 | 46.83458 | -50.68145 | 34789 ft | 543 kts | 74° |
| 2026-05-04 05:21 | 46.86012 | -50.57758 | 34807 ft | 545 kts | 74° |
| 2026-05-04 05:21 | 46.88535 | -50.47456 | 34798 ft | 541 kts | 74° |
| 2026-05-04 05:22 | 46.91066 | -50.37061 | 34803 ft | 545 kts | 74° |
| 2026-05-04 05:22 | 46.93577 | -50.26712 | 34805 ft | 541 kts | 75° |
| 2026-05-04 05:23 | 46.96107 | -50.16228 | 34809 ft | 544 kts | 74° |
| 2026-05-04 05:23 | 46.98589 | -50.05898 | 34808 ft | 543 kts | 74° |
| 2026-05-04 05:24 | 47.01093 | -49.95552 | 34807 ft | 542 kts | 73° |
| 2026-05-04 05:24 | 47.03724 | -49.85128 | 34811 ft | 545 kts | 72° |
| 2026-05-04 05:25 | 47.06341 | -49.74710 | 34828 ft | 543 kts | 72° |
| 2026-05-04 05:25 | 47.08922 | -49.64371 | 34837 ft | 546 kts | 71° |
| 2026-05-04 05:26 | 47.11516 | -49.53925 | 34837 ft | 541 kts | 71° |
| 2026-05-04 05:26 | 47.14074 | -49.43572 | 34841 ft | 547 kts | 72° |
| 2026-05-04 05:28 | 47.24227 | -49.01978 | 34863 ft | 540 kts | 71° |
| 2026-05-04 05:29 | 47.26722 | -48.91633 | 34860 ft | 537 kts | 71° |
| 2026-05-04 05:29 | 47.29214 | -48.81255 | 34870 ft | 537 kts | 71° |
| 2026-05-04 05:31 | 47.39031 | -48.39883 | 34900 ft | 535 kts | 71° |
| 2026-05-04 05:32 | 47.41466 | -48.29499 | 34892 ft | 536 kts | 71° |
| 2026-05-04 05:33 | 47.45090 | -48.13949 | 34901 ft | 536 kts | 71° |
| 2026-05-04 05:33 | 47.47480 | -48.03633 | 34900 ft | 532 kts | 71° |
| 2026-05-04 05:34 | 47.49863 | -47.93298 | 34920 ft | 535 kts | 71° |
| 2026-05-04 05:34 | 47.52246 | -47.82916 | 34920 ft | 534 kts | 71° |
| 2026-05-04 05:35 | 47.54617 | -47.72535 | 34924 ft | 531 kts | 71° |
| 2026-05-04 05:35 | 47.56969 | -47.62187 | 34924 ft | 533 kts | 71° |
| 2026-05-04 05:36 | 47.59307 | -47.51843 | 34944 ft | 531 kts | 70° |
| 2026-05-04 05:36 | 47.61648 | -47.41445 | 34954 ft | 533 kts | 70° |
| 2026-05-04 05:37 | 47.63959 | -47.31126 | 34944 ft | 528 kts | 70° |
| 2026-05-04 05:37 | 47.66276 | -47.20731 | 34938 ft | 532 kts | 71° |
| 2026-05-04 05:38 | 47.69693 | -47.05303 | 34938 ft | 529 kts | 71° |
| 2026-05-04 05:38 | 47.71985 | -46.94891 | 34952 ft | 531 kts | 71° |
| 2026-05-04 05:39 | 47.75384 | -46.79352 | 34960 ft | 528 kts | 70° |
| 2026-05-04 05:40 | 47.78761 | -46.63799 | 34965 ft | 527 kts | 71° |
| 2026-05-04 05:40 | 47.80996 | -46.53444 | 34972 ft | 528 kts | 70° |
| 2026-05-04 05:41 | 47.83225 | -46.43057 | 34979 ft | 525 kts | 70° |
| 2026-05-04 05:41 | 47.85422 | -46.32773 | 34977 ft | 527 kts | 71° |
| 2026-05-04 05:42 | 47.87618 | -46.22440 | 34973 ft | 525 kts | 71° |
| 2026-05-04 05:42 | 47.89815 | -46.12049 | 34984 ft | 526 kts | 71° |
| 2026-05-04 05:43 | 47.91985 | -46.01738 | 34985 ft | 525 kts | 70° |
| 2026-05-04 05:45 | 48.00630 | -45.60111 | 35003 ft | 529 kts | 70° |
| 2026-05-04 05:47 | 48.09150 | -45.18215 | 35031 ft | 529 kts | 70° |
| 2026-05-04 05:47 | 48.11269 | -45.07659 | 35042 ft | 531 kts | 70° |
| 2026-05-04 05:48 | 48.13384 | -44.97061 | 35055 ft | 530 kts | 70° |
| 2026-05-04 05:48 | 48.15470 | -44.86551 | 35063 ft | 528 kts | 69° |
| 2026-05-04 05:49 | 48.17552 | -44.76005 | 35071 ft | 529 kts | 70° |
| 2026-05-04 05:49 | 48.19625 | -44.65454 | 35076 ft | 530 kts | 70° |
| 2026-05-04 05:51 | 48.27786 | -44.23318 | 35095 ft | 527 kts | 70° |
| 2026-05-04 05:52 | 48.29797 | -44.12788 | 35105 ft | 526 kts | 70° |
| 2026-05-04 05:52 | 48.31801 | -44.02241 | 35110 ft | 527 kts | 70° |
| 2026-05-04 05:54 | 48.39687 | -43.60142 | 35139 ft | 525 kts | 69° |
| 2026-05-04 05:55 | 48.41627 | -43.49643 | 35141 ft | 528 kts | 69° |
| 2026-05-04 05:55 | 48.43575 | -43.39019 | 35142 ft | 519 kts | 69° |
| 2026-05-04 05:56 | 48.45487 | -43.28556 | 35140 ft | 524 kts | 69° |
| 2026-05-04 05:56 | 48.47400 | -43.18016 | 35142 ft | 522 kts | 69° |
| 2026-05-04 05:57 | 48.49305 | -43.07463 | 35153 ft | 523 kts | 69° |
| 2026-05-04 05:57 | 48.51191 | -42.96950 | 35155 ft | 521 kts | 69° |
| 2026-05-04 05:58 | 48.53075 | -42.86386 | 35154 ft | 520 kts | 69° |
| 2026-05-04 05:58 | 48.54952 | -42.75809 | 35160 ft | 521 kts | 69° |
| 2026-05-04 05:59 | 48.56808 | -42.65278 | 35167 ft | 520 kts | 69° |
| 2026-05-04 05:59 | 48.58642 | -42.54808 | 35173 ft | 517 kts | 69° |
| 2026-05-04 06:00 | 48.60471 | -42.44309 | 35184 ft | 517 kts | 68° |
| 2026-05-04 06:00 | 48.62297 | -42.33774 | 35178 ft | 520 kts | 69° |
| 2026-05-04 06:01 | 48.64096 | -42.23315 | 35175 ft | 516 kts | 69° |
| 2026-05-04 06:03 | 48.71227 | -41.81264 | 35207 ft | 517 kts | 69° |
| 2026-05-04 06:05 | 48.79042 | -41.33969 | 35235 ft | 514 kts | 69° |
| 2026-05-04 06:06 | 48.80743 | -41.23494 | 35230 ft | 517 kts | 69° |
| 2026-05-04 06:06 | 48.82430 | -41.13033 | 35235 ft | 511 kts | 69° |
| 2026-05-04 06:07 | 48.84116 | -41.02518 | 35245 ft | 511 kts | 68° |
| 2026-05-04 06:07 | 48.85779 | -40.92081 | 35234 ft | 511 kts | 68° |
| 2026-05-04 06:08 | 48.87431 | -40.81651 | 35238 ft | 509 kts | 68° |
| 2026-05-04 06:08 | 48.89077 | -40.71190 | 35238 ft | 508 kts | 68° |
| 2026-05-04 06:09 | 48.90708 | -40.60750 | 35249 ft | 508 kts | 68° |
| 2026-05-04 06:11 | 48.97092 | -40.19260 | 35263 ft | 501 kts | 68° |
| 2026-05-04 06:13 | 49.05091 | -39.79131 | 35277 ft | 490 kts | 59° |
| 2026-05-04 06:14 | 49.13658 | -39.45249 | 35308 ft | 491 kts | 61° |
| 2026-05-04 06:15 | 49.16061 | -39.35522 | 35312 ft | 491 kts | 62° |
| 2026-05-04 06:15 | 49.18458 | -39.25767 | 35302 ft | 493 kts | 63° |
| 2026-05-04 06:16 | 49.20851 | -39.15968 | 35311 ft | 492 kts | 63° |
| 2026-05-04 06:16 | 49.23214 | -39.06249 | 35317 ft | 494 kts | 63° |
| 2026-05-04 06:17 | 49.25588 | -38.96433 | 35321 ft | 490 kts | 64° |
| 2026-05-04 06:17 | 49.27945 | -38.86647 | 35326 ft | 491 kts | 64° |
| 2026-05-04 06:18 | 49.30299 | -38.76828 | 35325 ft | 491 kts | 64° |
| 2026-05-04 06:20 | 49.39581 | -38.37669 | 35326 ft | 487 kts | 64° |
| 2026-05-04 06:21 | 49.45288 | -38.13242 | 35327 ft | 490 kts | 66° |
| 2026-05-04 06:22 | 49.47563 | -38.03423 | 35334 ft | 488 kts | 66° |
| 2026-05-04 06:25 | 49.63181 | -37.34777 | 35354 ft | 485 kts | 68° |
| 2026-05-04 06:26 | 49.65370 | -37.24976 | 35353 ft | 485 kts | 68° |
| 2026-05-04 06:26 | 49.67541 | -37.15207 | 35359 ft | 485 kts | 68° |
| 2026-05-04 06:27 | 49.72956 | -36.90646 | 35363 ft | 484 kts | 68° |
| 2026-05-04 06:28 | 49.75109 | -36.80796 | 35387 ft | 485 kts | 69° |
| 2026-05-04 06:28 | 49.77246 | -36.70976 | 35356 ft | 485 kts | 69° |
| 2026-05-04 06:29 | 49.79395 | -36.61051 | 35352 ft | 488 kts | 69° |
| 2026-05-04 06:29 | 49.81522 | -36.51183 | 35362 ft | 488 kts | 69° |
| 2026-05-04 06:30 | 49.83662 | -36.41202 | 35362 ft | 487 kts | 69° |
| 2026-05-04 06:30 | 49.85778 | -36.31290 | 35351 ft | 488 kts | 70° |
| 2026-05-04 06:31 | 49.87894 | -36.21322 | 35360 ft | 487 kts | 71° |
| 2026-05-04 06:31 | 49.89983 | -36.11438 | 35376 ft | 486 kts | 71° |
| 2026-05-04 06:33 | 49.98272 | -35.71729 | 35388 ft | 485 kts | 71° |
| 2026-05-04 06:34 | 50.00329 | -35.61753 | 35380 ft | 486 kts | 71° |
| 2026-05-04 06:34 | 50.02376 | -35.51776 | 35386 ft | 486 kts | 71° |
| 2026-05-04 06:36 | 50.10479 | -35.11773 | 35380 ft | 485 kts | 72° |
| 2026-05-04 06:37 | 50.12480 | -35.01766 | 35386 ft | 485 kts | 72° |
| 2026-05-04 06:37 | 50.14475 | -34.91739 | 35383 ft | 485 kts | 72° |
| 2026-05-04 06:38 | 50.16452 | -34.81748 | 35382 ft | 484 kts | 72° |
| 2026-05-04 06:40 | 50.24305 | -34.41556 | 35393 ft | 486 kts | 72° |
| 2026-05-04 06:40 | 50.26251 | -34.31464 | 35391 ft | 487 kts | 73° |
| 2026-05-04 06:41 | 50.28194 | -34.21334 | 35384 ft | 487 kts | 73° |
| 2026-05-04 06:41 | 50.30128 | -34.11198 | 35380 ft | 487 kts | 73° |
| 2026-05-04 06:42 | 50.32046 | -34.01089 | 35381 ft | 486 kts | 73° |
| 2026-05-04 06:44 | 50.39615 | -33.60656 | 35395 ft | 486 kts | 73° |
| 2026-05-04 06:44 | 50.41493 | -33.50487 | 35390 ft | 485 kts | 73° |
| 2026-05-04 06:45 | 50.43357 | -33.40333 | 35400 ft | 486 kts | 73° |
| 2026-05-04 06:45 | 50.45201 | -33.30240 | 35398 ft | 486 kts | 74° |
| 2026-05-04 06:46 | 50.47046 | -33.20081 | 35404 ft | 485 kts | 74° |
| 2026-05-04 06:46 | 50.48876 | -33.09950 | 35404 ft | 485 kts | 74° |
| 2026-05-04 06:48 | 50.56099 | -32.69395 | 35403 ft | 484 kts | 73° |
| 2026-05-04 06:50 | 50.63171 | -32.28773 | 35405 ft | 483 kts | 74° |
| 2026-05-04 06:51 | 50.64916 | -32.18601 | 35403 ft | 483 kts | 74° |
| 2026-05-04 06:51 | 50.66649 | -32.08444 | 35401 ft | 482 kts | 74° |
| 2026-05-04 06:52 | 50.68385 | -31.98207 | 35403 ft | 482 kts | 74° |
| 2026-05-04 06:52 | 50.70101 | -31.88030 | 35403 ft | 480 kts | 74° |
| 2026-05-04 06:53 | 50.71802 | -31.77884 | 35409 ft | 482 kts | 74° |
| 2026-05-04 06:53 | 50.73502 | -31.67678 | 35411 ft | 481 kts | 74° |
| 2026-05-04 06:54 | 50.75185 | -31.57517 | 35418 ft | 482 kts | 74° |
| 2026-05-04 06:54 | 50.76863 | -31.47326 | 35422 ft | 481 kts | 74° |
| 2026-05-04 06:55 | 50.78524 | -31.37174 | 35425 ft | 479 kts | 74° |
| 2026-05-04 06:55 | 50.80188 | -31.26947 | 35421 ft | 478 kts | 75° |
| 2026-05-04 06:57 | 50.86692 | -30.86349 | 35419 ft | 478 kts | 75° |
| 2026-05-04 06:58 | 50.88298 | -30.76170 | 35409 ft | 477 kts | 75° |
| 2026-05-04 06:58 | 50.89890 | -30.66019 | 35402 ft | 478 kts | 74° |
| 2026-05-04 06:59 | 50.91467 | -30.55894 | 35401 ft | 476 kts | 75° |
| 2026-05-04 06:59 | 50.93050 | -30.45670 | 35402 ft | 476 kts | 74° |
| 2026-05-04 07:01 | 50.99256 | -30.04952 | 35401 ft | 476 kts | 75° |
| 2026-05-04 07:02 | 51.00752 | -29.94798 | 35400 ft | 475 kts | 75° |
| 2026-05-04 07:02 | 51.02231 | -29.84579 | 35399 ft | 475 kts | 75° |
| 2026-05-04 07:03 | 51.03695 | -29.74391 | 35400 ft | 475 kts | 75° |
| 2026-05-04 07:03 | 51.05148 | -29.64203 | 35400 ft | 475 kts | 75° |
| 2026-05-04 07:04 | 51.06600 | -29.53957 | 35407 ft | 475 kts | 75° |
| 2026-05-04 07:04 | 51.08034 | -29.43771 | 35417 ft | 475 kts | 75° |
| 2026-05-04 07:05 | 51.09460 | -29.33563 | 35410 ft | 475 kts | 76° |
| 2026-05-04 07:05 | 51.10889 | -29.23269 | 35403 ft | 475 kts | 76° |
| 2026-05-04 07:06 | 51.12997 | -29.07945 | 35402 ft | 474 kts | 76° |
| 2026-05-04 07:07 | 51.14381 | -28.97798 | 35401 ft | 473 kts | 76° |
| 2026-05-04 07:09 | 51.19868 | -28.56865 | 35403 ft | 474 kts | 75° |
| 2026-05-04 07:09 | 51.21216 | -28.46620 | 35402 ft | 474 kts | 75° |
| 2026-05-04 07:10 | 51.22552 | -28.36402 | 35403 ft | 473 kts | 75° |
| 2026-05-04 07:12 | 51.27811 | -27.95421 | 35400 ft | 473 kts | 76° |
| 2026-05-04 07:12 | 51.29107 | -27.85136 | 35399 ft | 473 kts | 76° |
| 2026-05-04 07:13 | 51.30392 | -27.74855 | 35394 ft | 473 kts | 76° |
| 2026-05-04 07:13 | 51.31657 | -27.64654 | 35392 ft | 473 kts | 76° |
| 2026-05-04 07:14 | 51.34815 | -27.38861 | 35385 ft | 472 kts | 76° |
| 2026-05-04 07:15 | 51.36058 | -27.28567 | 35381 ft | 472 kts | 77° |
| 2026-05-04 07:15 | 51.37293 | -27.18268 | 35377 ft | 472 kts | 77° |
| 2026-05-04 07:16 | 51.38515 | -27.07988 | 35378 ft | 474 kts | 77° |
| 2026-05-04 07:16 | 51.39728 | -26.97695 | 35378 ft | 473 kts | 76° |
| 2026-05-04 07:17 | 51.40935 | -26.87388 | 35379 ft | 473 kts | 76° |
| 2026-05-04 07:17 | 51.42133 | -26.77067 | 35377 ft | 473 kts | 77° |
| 2026-05-04 07:18 | 51.43321 | -26.66752 | 35377 ft | 472 kts | 77° |
| 2026-05-04 07:18 | 51.44505 | -26.56383 | 35376 ft | 473 kts | 77° |
| 2026-05-04 07:19 | 51.45672 | -26.46080 | 35372 ft | 472 kts | 77° |
| 2026-05-04 07:19 | 51.46825 | -26.35809 | 35373 ft | 472 kts | 77° |
| 2026-05-04 07:20 | 51.47981 | -26.25436 | 35371 ft | 472 kts | 78° |
| 2026-05-04 07:20 | 51.49121 | -26.15112 | 35374 ft | 472 kts | 78° |
| 2026-05-04 07:22 | 51.53598 | -25.73711 | 35367 ft | 472 kts | 78° |
| 2026-05-04 07:23 | 51.54695 | -25.63333 | 35370 ft | 471 kts | 78° |
| 2026-05-04 07:23 | 51.55783 | -25.52956 | 35368 ft | 471 kts | 78° |
| 2026-05-04 07:24 | 51.56853 | -25.42665 | 35372 ft | 471 kts | 78° |
| 2026-05-04 07:24 | 51.57917 | -25.32338 | 35370 ft | 471 kts | 79° |
| 2026-05-04 07:26 | 51.62092 | -24.90871 | 35361 ft | 469 kts | 79° |
| 2026-05-04 07:27 | 51.63111 | -24.80517 | 35355 ft | 469 kts | 79° |
| 2026-05-04 07:27 | 51.64120 | -24.70155 | 35364 ft | 470 kts | 79° |
| 2026-05-04 07:28 | 51.65117 | -24.59830 | 35360 ft | 469 kts | 79° |
| 2026-05-04 07:28 | 51.66107 | -24.49473 | 35353 ft | 469 kts | 80° |
| 2026-05-04 07:29 | 51.67086 | -24.39142 | 35354 ft | 469 kts | 79° |
| 2026-05-04 07:29 | 51.68059 | -24.28760 | 35349 ft | 469 kts | 81° |
| 2026-05-04 07:30 | 51.69017 | -24.18436 | 35355 ft | 468 kts | 81° |
| 2026-05-04 07:30 | 51.69966 | -24.08124 | 35359 ft | 468 kts | 81° |
| 2026-05-04 07:31 | 51.70911 | -23.97740 | 35359 ft | 468 kts | 81° |
| 2026-05-04 07:33 | 51.74579 | -23.56395 | 35341 ft | 466 kts | 80° |
| 2026-05-04 07:33 | 51.75476 | -23.46027 | 35345 ft | 467 kts | 80° |
| 2026-05-04 07:34 | 51.76357 | -23.35721 | 35336 ft | 466 kts | 80° |
| 2026-05-04 07:34 | 51.77235 | -23.25342 | 35332 ft | 466 kts | 81° |
| 2026-05-04 07:35 | 51.78099 | -23.15025 | 35328 ft | 467 kts | 81° |
| 2026-05-04 07:35 | 51.78958 | -23.04657 | 35324 ft | 467 kts | 81° |
| 2026-05-04 07:36 | 51.79800 | -22.94372 | 35328 ft | 465 kts | 81° |
| 2026-05-04 07:38 | 51.83094 | -22.53008 | 35328 ft | 465 kts | 81° |
| 2026-05-04 07:38 | 51.83895 | -22.42660 | 35328 ft | 465 kts | 81° |
| 2026-05-04 07:39 | 51.84682 | -22.32363 | 35325 ft | 465 kts | 82° |
| 2026-05-04 07:39 | 51.85469 | -22.21949 | 35321 ft | 465 kts | 82° |
| 2026-05-04 07:40 | 51.86241 | -22.11599 | 35313 ft | 464 kts | 82° |
| 2026-05-04 07:40 | 51.87004 | -22.01257 | 35304 ft | 464 kts | 82° |
| 2026-05-04 07:41 | 51.87759 | -21.90896 | 35304 ft | 465 kts | 82° |